Time;durP1;ratioP1;P1;durP2;ratioP2;P2;SDS_P1;SDS_P2;PMS_P1;PMS_P2;Temp;Humidity;BMP_temperature;BMP_pressure;BME280_temperature;BME280_humidity;BME280_pressure;Samples;Min_cycle;Max_cycle;Signal;HPM_P1;HPM_P2
2022/07/09 00:01:24;;;;;;;0.00;0.00;;;18.10;99.90;;;;;;5061327;28;20140;-67
2022/07/09 00:03:51;;;;;;;4.53;0.88;;;18.00;99.90;;;;;;5084331;28;20170;-67
2022/07/09 00:06:17;;;;;;;0.10;0.10;;;18.10;99.90;;;;;;5078003;28;20366;-67
2022/07/09 00:08:43;;;;;;;0.08;0.08;;;18.10;99.90;;;;;;5045432;28;20056;-67
2022/07/09 00:11:09;;;;;;;0.00;0.00;;;18.10;99.90;;;;;;5076531;28;20040;-67
2022/07/09 00:13:34;;;;;;;0.45;0.45;;;18.10;99.90;;;;;;5055458;28;20051;-67
2022/07/09 00:16:00;;;;;;;0.08;0.08;;;18.20;99.90;;;;;;5078795;28;20468;-67
2022/07/09 00:18:26;;;;;;;0.03;0.03;;;18.20;99.90;;;;;;5088717;28;20044;-67
2022/07/09 00:20:54;;;;;;;0.00;0.00;;;18.20;99.90;;;;;;5067807;28;20048;-67
2022/07/09 00:23:20;;;;;;;0.30;0.30;;;18.30;99.90;;;;;;5077610;28;20047;-67
2022/07/09 00:25:45;;;;;;;0.47;0.22;;;18.20;99.90;;;;;;5071079;28;20040;-67
2022/07/09 00:28:11;;;;;;;0.40;0.40;;;18.30;99.90;;;;;;5076996;28;20134;-67
2022/07/09 00:30:36;;;;;;;0.03;0.03;;;18.30;99.90;;;;;;5069511;28;20040;-67
2022/07/09 00:33:02;;;;;;;0.00;0.00;;;18.30;99.90;;;;;;5066784;28;20090;-67
2022/07/09 00:35:27;;;;;;;0.00;0.00;;;18.30;99.90;;;;;;5057971;28;20169;-67
2022/07/09 00:37:53;;;;;;;0.45;0.43;;;18.20;99.90;;;;;;5069739;28;20381;-67
2022/07/09 00:40:19;;;;;;;0.00;0.00;;;18.30;99.90;;;;;;5051727;28;20032;-67
2022/07/09 00:42:44;;;;;;;0.00;0.00;;;18.30;99.90;;;;;;5057472;28;20146;-67
2022/07/09 00:45:10;;;;;;;1.17;1.10;;;18.30;99.90;;;;;;5061446;28;20041;-67
2022/07/09 00:47:35;;;;;;;0.10;0.10;;;18.30;99.90;;;;;;5064840;28;20048;-67
2022/07/09 00:50:02;;;;;;;3.13;0.38;;;18.30;99.90;;;;;;5047534;28;20056;-67
2022/07/09 00:52:30;;;;;;;0.10;0.10;;;18.30;99.90;;;;;;5048781;28;20036;-67
2022/07/09 00:54:59;;;;;;;0.90;0.43;;;18.30;99.90;;;;;;5054608;28;20623;-67
2022/07/09 00:57:25;;;;;;;0.00;0.00;;;18.30;99.90;;;;;;5072215;28;20131;-67
2022/07/09 00:59:51;;;;;;;0.10;0.10;;;18.30;99.90;;;;;;5065869;28;20128;-67
2022/07/09 01:02:21;;;;;;;0.10;0.10;;;18.30;99.90;;;;;;5055111;28;20516;-67
2022/07/09 01:04:47;;;;;;;1.65;0.55;;;18.30;99.90;;;;;;5081157;28;20508;-67
2022/07/09 01:07:12;;;;;;;0.00;0.00;;;18.30;99.90;;;;;;5051919;28;20083;-67
2022/07/09 01:09:38;;;;;;;0.13;0.13;;;18.30;99.90;;;;;;5068455;28;20147;-67
2022/07/09 01:12:05;;;;;;;0.00;0.00;;;18.30;99.90;;;;;;5056644;28;20120;-67
2022/07/09 01:14:30;;;;;;;18.35;0.40;;;18.20;99.90;;;;;;5056523;28;20082;-67
2022/07/09 01:17:04;;;;;;;0.28;0.28;;;18.30;99.90;;;;;;5036101;28;20453;-67
2022/07/09 01:19:31;;;;;;;0.10;0.10;;;18.20;99.90;;;;;;5069884;28;20103;-67
2022/07/09 01:21:57;;;;;;;0.00;0.00;;;18.20;99.90;;;;;;5074208;28;20476;-67
2022/07/09 01:24:25;;;;;;;0.20;0.20;;;18.20;99.90;;;;;;5085345;28;20055;-67
2022/07/09 01:26:53;;;;;;;0.03;0.03;;;18.20;99.90;;;;;;5089320;28;20040;-67
2022/07/09 01:29:19;;;;;;;0.00;0.00;;;18.10;99.90;;;;;;5071386;28;20094;-67
2022/07/09 01:31:45;;;;;;;0.10;0.10;;;18.10;99.90;;;;;;5064664;28;20041;-67
2022/07/09 01:34:10;;;;;;;0.35;0.35;;;18.10;99.90;;;;;;5074323;28;20067;-67
2022/07/09 01:36:36;;;;;;;0.10;0.10;;;18.10;99.90;;;;;;5053117;28;20033;-67
2022/07/09 01:39:01;;;;;;;0.10;0.10;;;18.10;99.90;;;;;;5076425;28;20570;-67
2022/07/09 01:41:27;;;;;;;0.00;0.00;;;18.10;99.90;;;;;;5084335;28;20112;-67
2022/07/09 01:43:52;;;;;;;0.08;0.08;;;18.10;99.90;;;;;;5065651;28;20498;-67
2022/07/09 01:46:18;;;;;;;0.20;0.20;;;18.00;99.90;;;;;;5058321;28;20039;-67
2022/07/09 01:48:43;;;;;;;0.00;0.00;;;18.10;99.90;;;;;;5046498;28;20052;-67
2022/07/09 01:51:09;;;;;;;0.10;0.10;;;18.00;99.90;;;;;;5068607;28;20050;-67
2022/07/09 01:53:35;;;;;;;0.10;0.10;;;18.00;99.90;;;;;;5065189;28;20087;-67
2022/07/09 01:56:06;;;;;;;0.00;0.00;;;18.00;99.90;;;;;;5072614;28;20067;-67
2022/07/09 01:58:33;;;;;;;0.00;0.00;;;18.00;99.90;;;;;;5080641;28;20668;-67
2022/07/09 02:00:58;;;;;;;0.20;0.20;;;17.90;99.90;;;;;;5040543;28;20262;-67
2022/07/09 02:03:24;;;;;;;0.30;0.30;;;18.00;99.90;;;;;;5011171;28;20095;-67
2022/07/09 02:05:49;;;;;;;13.27;0.43;;;18.10;99.90;;;;;;5039014;28;20475;-67
2022/07/09 02:08:15;;;;;;;0.00;0.00;;;18.00;99.90;;;;;;5039079;28;20048;-67
2022/07/09 02:10:41;;;;;;;0.10;0.10;;;18.00;99.90;;;;;;5044731;28;20079;-67
2022/07/09 02:13:06;;;;;;;0.30;0.30;;;18.00;99.90;;;;;;5016615;28;20099;-67
2022/07/09 02:15:32;;;;;;;0.22;0.22;;;18.00;99.90;;;;;;5016774;28;20077;-67
2022/07/09 02:17:58;;;;;;;0.90;0.75;;;18.10;99.90;;;;;;5027540;28;20042;-67
2022/07/09 02:20:24;;;;;;;0.43;0.43;;;18.10;99.90;;;;;;5027652;28;20171;-67
2022/07/09 02:22:50;;;;;;;0.00;0.00;;;18.10;99.90;;;;;;5025914;28;20053;-67
2022/07/09 02:25:16;;;;;;;0.00;0.00;;;18.10;99.90;;;;;;5018171;28;20160;-67
2022/07/09 02:27:42;;;;;;;0.20;0.20;;;18.10;99.90;;;;;;5039493;28;20048;-67
2022/07/09 02:30:07;;;;;;;0.20;0.20;;;18.00;99.90;;;;;;5013185;28;20050;-67
2022/07/09 02:32:33;;;;;;;0.00;0.00;;;18.00;99.90;;;;;;5021848;28;20500;-67
2022/07/09 02:34:59;;;;;;;0.63;0.35;;;18.00;99.90;;;;;;5031159;28;20033;-67
2022/07/09 02:37:24;;;;;;;0.00;0.00;;;18.00;99.90;;;;;;5042896;28;20131;-67
2022/07/09 02:39:50;;;;;;;0.70;0.70;;;18.00;99.90;;;;;;5032441;28;20050;-67
2022/07/09 02:42:15;;;;;;;0.45;0.30;;;18.00;99.90;;;;;;5027285;28;20052;-67
2022/07/09 02:44:43;;;;;;;0.00;0.00;;;18.00;99.90;;;;;;5034555;28;20056;-67
2022/07/09 02:47:09;;;;;;;0.00;0.00;;;17.90;99.90;;;;;;5017380;28;20456;-67
2022/07/09 02:49:34;;;;;;;0.28;0.28;;;17.90;99.90;;;;;;5043599;28;20052;-67
2022/07/09 02:52:01;;;;;;;0.20;0.20;;;17.90;99.90;;;;;;5010184;28;20074;-67
2022/07/09 02:54:27;;;;;;;0.70;0.65;;;17.80;99.90;;;;;;5026744;28;20541;-67
2022/07/09 02:56:53;;;;;;;0.10;0.10;;;17.80;99.90;;;;;;5033466;28;20153;-67
2022/07/09 02:59:19;;;;;;;0.00;0.00;;;17.90;99.90;;;;;;5032603;28;20128;-67
2022/07/09 03:01:45;;;;;;;0.00;0.00;;;17.90;99.90;;;;;;5036175;28;20057;-67
2022/07/09 03:04:10;;;;;;;0.00;0.00;;;17.90;99.90;;;;;;5068137;28;20132;-67
2022/07/09 03:06:36;;;;;;;0.00;0.00;;;17.90;99.90;;;;;;5061596;28;20051;-67
2022/07/09 03:09:02;;;;;;;0.00;0.00;;;17.90;99.90;;;;;;5081851;28;20733;-67
2022/07/09 03:11:27;;;;;;;0.00;0.00;;;17.90;99.90;;;;;;5070553;28;20412;-67
2022/07/09 03:13:54;;;;;;;0.00;0.00;;;17.90;99.90;;;;;;5045251;28;20503;-66
2022/07/09 03:16:20;;;;;;;0.00;0.00;;;17.80;99.90;;;;;;5072993;28;20071;-67
2022/07/09 03:18:45;;;;;;;0.00;0.00;;;17.80;99.90;;;;;;5063204;28;20098;-67
2022/07/09 03:21:11;;;;;;;0.10;0.10;;;17.80;99.90;;;;;;5075461;28;20051;-67
2022/07/09 03:23:37;;;;;;;0.00;0.00;;;17.90;99.90;;;;;;5066707;28;20672;-67
2022/07/09 03:26:06;;;;;;;0.10;0.10;;;17.80;99.90;;;;;;5058404;28;20041;-67
2022/07/09 03:28:33;;;;;;;0.00;0.00;;;17.80;99.90;;;;;;5080450;28;20078;-67
2022/07/09 03:30:59;;;;;;;0.00;0.00;;;17.80;99.90;;;;;;5057963;28;20057;-67
2022/07/09 03:33:25;;;;;;;0.00;0.00;;;17.80;99.90;;;;;;5064712;28;20055;-67
2022/07/09 03:35:52;;;;;;;0.43;0.05;;;17.80;99.90;;;;;;5062083;28;20048;-67
2022/07/09 03:38:18;;;;;;;0.00;0.00;;;17.70;99.90;;;;;;5070744;28;20593;-67
2022/07/09 03:40:43;;;;;;;0.05;0.05;;;17.70;99.90;;;;;;5052942;28;20060;-67
2022/07/09 03:43:09;;;;;;;0.10;0.10;;;17.80;99.90;;;;;;5064252;28;20398;-67
2022/07/09 03:45:35;;;;;;;0.00;0.00;;;17.70;99.90;;;;;;5082132;28;20047;-67
2022/07/09 03:48:00;;;;;;;0.10;0.10;;;17.70;99.90;;;;;;5070405;28;20040;-67
2022/07/09 03:50:26;;;;;;;0.00;0.00;;;17.70;99.90;;;;;;5071015;28;20041;-67
2022/07/09 03:52:51;;;;;;;0.00;0.00;;;17.70;99.90;;;;;;5062764;28;20056;-67
2022/07/09 03:55:17;;;;;;;0.00;0.00;;;17.70;99.90;;;;;;5090566;28;20898;-67
2022/07/09 03:57:42;;;;;;;0.00;0.00;;;17.70;99.90;;;;;;5091500;28;20479;-67
2022/07/09 04:00:09;;;;;;;0.10;0.10;;;17.70;99.90;;;;;;5091355;28;20032;-67
2022/07/09 04:02:34;;;;;;;0.73;0.73;;;17.70;99.90;;;;;;5064271;28;20053;-67
2022/07/09 04:05:00;;;;;;;0.10;0.10;;;17.70;99.90;;;;;;5072822;28;20407;-67
2022/07/09 04:07:26;;;;;;;0.00;0.00;;;17.70;99.90;;;;;;5053067;28;20088;-66
2022/07/09 04:09:54;;;;;;;0.00;0.00;;;17.70;99.90;;;;;;5070227;28;20507;-67
2022/07/09 04:12:21;;;;;;;0.10;0.10;;;17.60;99.90;;;;;;5077328;28;20510;-67
2022/07/09 04:14:46;;;;;;;0.05;0.05;;;17.60;99.90;;;;;;5060092;28;20483;-67
2022/07/09 04:17:12;;;;;;;0.00;0.00;;;17.60;99.90;;;;;;5050618;28;20041;-67
2022/07/09 04:19:38;;;;;;;0.00;0.00;;;17.60;99.90;;;;;;5053007;28;20033;-67
2022/07/09 04:22:04;;;;;;;0.25;0.25;;;17.60;99.90;;;;;;5062765;28;20036;-67
2022/07/09 04:24:29;;;;;;;0.68;0.68;;;17.60;99.90;;;;;;5063054;28;20045;-67
2022/07/09 04:26:56;;;;;;;0.35;0.17;;;17.60;99.90;;;;;;5057817;28;20454;-67
2022/07/09 04:29:22;;;;;;;0.00;0.00;;;17.60;99.90;;;;;;5068504;28;20119;-67
2022/07/09 04:31:47;;;;;;;0.10;0.10;;;17.60;99.90;;;;;;5052284;28;20132;-67
2022/07/09 04:34:13;;;;;;;0.00;0.00;;;17.70;99.90;;;;;;5054187;28;20040;-67
2022/07/09 04:36:38;;;;;;;0.00;0.00;;;17.70;99.90;;;;;;5059692;28;20051;-67
2022/07/09 04:39:04;;;;;;;0.10;0.10;;;17.70;99.90;;;;;;5069371;28;20051;-67
2022/07/09 04:41:30;;;;;;;0.10;0.10;;;17.70;99.90;;;;;;5069482;28;20040;-67
2022/07/09 04:43:56;;;;;;;0.00;0.00;;;17.70;99.90;;;;;;5045104;28;20040;-67
2022/07/09 04:46:22;;;;;;;0.10;0.10;;;17.80;99.90;;;;;;5067426;28;20068;-67
2022/07/09 04:48:48;;;;;;;0.08;0.08;;;17.80;99.90;;;;;;5059691;28;20037;-67
2022/07/09 04:51:14;;;;;;;0.00;0.00;;;17.80;99.90;;;;;;5068529;28;20090;-67
2022/07/09 04:53:39;;;;;;;0.00;0.00;;;17.90;99.90;;;;;;5071200;28;20043;-67
2022/07/09 04:56:06;;;;;;;0.00;0.00;;;17.90;99.90;;;;;;5081241;28;20452;-67
2022/07/09 04:58:32;;;;;;;0.10;0.10;;;17.90;99.90;;;;;;5076591;28;20044;-67
2022/07/09 05:00:58;;;;;;;0.00;0.00;;;18.00;99.90;;;;;;5084630;28;20052;-67
2022/07/09 05:03:24;;;;;;;0.00;0.00;;;18.00;99.90;;;;;;5066066;28;20086;-67
2022/07/09 05:05:50;;;;;;;0.38;0.38;;;18.00;99.90;;;;;;5081314;28;20124;-67
2022/07/09 05:08:17;;;;;;;0.10;0.10;;;18.00;99.90;;;;;;5068898;28;20047;-67
2022/07/09 05:10:42;;;;;;;0.00;0.00;;;18.10;99.90;;;;;;5069025;28;20091;-67
2022/07/09 05:13:08;;;;;;;0.10;0.10;;;18.00;99.90;;;;;;5039806;28;20650;-67
2022/07/09 05:15:34;;;;;;;0.00;0.00;;;18.10;99.90;;;;;;5068692;28;20040;-67
2022/07/09 05:18:00;;;;;;;0.30;0.30;;;18.10;99.90;;;;;;5067271;28;20131;-67
2022/07/09 05:20:26;;;;;;;0.20;0.20;;;18.20;99.90;;;;;;5067364;28;20129;-67
2022/07/09 05:22:51;;;;;;;0.00;0.00;;;18.20;99.90;;;;;;5067179;28;20047;-67
2022/07/09 05:25:17;;;;;;;0.00;0.00;;;18.20;99.90;;;;;;5058743;28;20566;-67
2022/07/09 05:27:46;;;;;;;0.10;0.10;;;18.20;99.90;;;;;;5032035;28;20059;-67
2022/07/09 05:30:14;;;;;;;0.00;0.00;;;18.20;99.90;;;;;;5033675;28;20049;-67
2022/07/09 05:32:41;;;;;;;0.00;0.00;;;18.20;99.90;;;;;;5058363;28;20242;-67
2022/07/09 05:35:07;;;;;;;0.08;0.08;;;18.30;99.90;;;;;;5069951;28;20740;-67
2022/07/09 05:37:32;;;;;;;0.00;0.00;;;18.30;99.90;;;;;;5067905;28;20036;-67
2022/07/09 05:39:58;;;;;;;0.00;0.00;;;18.30;99.90;;;;;;5067666;28;20399;-67
2022/07/09 05:42:24;;;;;;;0.13;0.13;;;18.40;99.90;;;;;;5076785;28;20036;-67
2022/07/09 05:44:50;;;;;;;0.00;0.00;;;18.40;99.90;;;;;;5060048;28;20031;-67
2022/07/09 05:47:15;;;;;;;0.00;0.00;;;18.30;99.90;;;;;;5054671;28;20048;-67
2022/07/09 05:49:41;;;;;;;0.15;0.15;;;18.40;99.90;;;;;;5037534;28;20045;-67
2022/07/09 05:52:06;;;;;;;0.25;0.25;;;18.40;99.90;;;;;;5048560;28;20064;-67
2022/07/09 05:54:32;;;;;;;0.00;0.00;;;18.40;99.90;;;;;;5030163;28;20107;-67
2022/07/09 05:56:58;;;;;;;1.45;0.30;;;18.40;99.90;;;;;;5066576;28;20052;-67
2022/07/09 05:59:23;;;;;;;0.10;0.10;;;18.40;99.90;;;;;;5075310;28;20064;-67
2022/07/09 06:01:49;;;;;;;0.00;0.00;;;18.50;99.90;;;;;;5043944;28;20440;-67
2022/07/09 06:04:15;;;;;;;0.00;0.00;;;18.50;99.90;;;;;;5039741;28;20061;-67
2022/07/09 06:06:40;;;;;;;0.00;0.00;;;18.50;99.90;;;;;;5048983;28;20052;-67
2022/07/09 06:09:06;;;;;;;0.00;0.00;;;18.50;99.90;;;;;;5063439;28;20079;-67
2022/07/09 06:11:32;;;;;;;0.00;0.00;;;18.60;99.90;;;;;;5065290;28;20041;-67
2022/07/09 06:13:58;;;;;;;0.10;0.10;;;18.60;99.90;;;;;;5056908;28;20099;-67
2022/07/09 06:16:23;;;;;;;0.38;0.38;;;18.50;99.90;;;;;;5047766;28;20127;-67
2022/07/09 06:18:49;;;;;;;0.00;0.00;;;18.60;99.90;;;;;;5069295;28;20032;-67
2022/07/09 06:21:14;;;;;;;0.10;0.10;;;18.60;99.90;;;;;;5049208;28;20060;-68
2022/07/09 06:23:40;;;;;;;0.32;0.20;;;18.60;99.90;;;;;;5035761;28;20043;-67
2022/07/09 06:26:05;;;;;;;0.10;0.10;;;18.60;99.90;;;;;;5038629;28;20158;-68
2022/07/09 06:28:31;;;;;;;0.00;0.00;;;18.60;99.90;;;;;;5057297;28;20151;-67
2022/07/09 06:30:57;;;;;;;0.08;0.08;;;18.60;99.90;;;;;;5062903;28;20037;-67
2022/07/09 06:33:23;;;;;;;0.65;0.60;;;18.70;99.90;;;;;;5061948;28;20036;-68
2022/07/09 06:35:48;;;;;;;0.10;0.10;;;18.70;99.90;;;;;;5040878;28;20036;-67
2022/07/09 06:38:14;;;;;;;0.00;0.00;;;18.70;99.90;;;;;;5080534;28;20532;-67
2022/07/09 06:40:39;;;;;;;0.10;0.10;;;18.70;99.90;;;;;;5067848;28;20044;-67
2022/07/09 06:43:05;;;;;;;0.00;0.00;;;18.70;99.90;;;;;;5048472;28;20041;-67
2022/07/09 06:45:31;;;;;;;0.10;0.10;;;18.70;99.90;;;;;;5064478;28;20401;-67
2022/07/09 06:47:56;;;;;;;0.00;0.00;;;18.70;99.90;;;;;;5050088;28;20033;-68
2022/07/09 06:50:22;;;;;;;0.00;0.00;;;18.70;99.90;;;;;;5064440;28;20036;-67
2022/07/09 06:52:47;;;;;;;1.38;0.30;;;18.70;99.90;;;;;;5064222;28;20487;-67
2022/07/09 06:55:13;;;;;;;0.03;0.03;;;18.80;99.90;;;;;;5075991;28;20123;-67
2022/07/09 06:57:39;;;;;;;0.00;0.00;;;18.80;99.90;;;;;;5053508;28;20048;-67
2022/07/09 07:00:05;;;;;;;0.00;0.00;;;18.80;99.90;;;;;;5083569;28;20044;-67
2022/07/09 07:02:31;;;;;;;0.00;0.00;;;18.80;99.90;;;;;;5066715;28;20056;-67
2022/07/09 07:04:56;;;;;;;0.00;0.00;;;18.70;99.90;;;;;;5070061;28;20555;-67
2022/07/09 07:07:22;;;;;;;2.75;1.00;;;18.70;99.90;;;;;;5087747;28;20092;-67
2022/07/09 07:09:48;;;;;;;0.00;0.00;;;18.70;99.90;;;;;;5067829;28;20036;-68
2022/07/09 07:12:13;;;;;;;0.00;0.00;;;18.80;99.90;;;;;;5055207;28;20179;-68
2022/07/09 07:14:39;;;;;;;0.00;0.00;;;18.70;99.90;;;;;;5056590;28;20265;-68
2022/07/09 07:17:04;;;;;;;0.43;0.43;;;18.70;99.90;;;;;;5060750;28;20052;-67
2022/07/09 07:19:30;;;;;;;0.00;0.00;;;18.80;99.90;;;;;;5039208;28;20049;-68
2022/07/09 07:21:55;;;;;;;0.10;0.10;;;18.80;99.90;;;;;;5060912;28;20086;-68
2022/07/09 07:24:21;;;;;;;0.00;0.00;;;18.80;99.90;;;;;;5062567;28;20492;-68
2022/07/09 07:26:46;;;;;;;0.15;0.15;;;18.80;99.90;;;;;;5051503;28;20223;-67
2022/07/09 07:29:12;;;;;;;0.00;0.00;;;18.70;99.90;;;;;;5087723;28;20040;-67
2022/07/09 07:31:38;;;;;;;0.00;0.00;;;18.70;99.90;;;;;;5068878;28;20642;-67
2022/07/09 07:34:04;;;;;;;0.00;0.00;;;18.80;99.90;;;;;;5084571;28;20059;-67
2022/07/09 07:36:29;;;;;;;2.38;0.65;;;18.90;99.90;;;;;;5067918;28;20171;-67
2022/07/09 07:38:55;;;;;;;0.00;0.00;;;19.10;99.90;;;;;;5049311;28;20079;-68
2022/07/09 07:41:21;;;;;;;0.10;0.10;;;19.20;99.90;;;;;;5067451;28;20036;-67
2022/07/09 07:43:47;;;;;;;0.00;0.00;;;19.30;99.90;;;;;;5079060;28;20048;-67
2022/07/09 07:46:13;;;;;;;0.00;0.00;;;19.30;99.90;;;;;;5090834;28;20047;-67
2022/07/09 07:48:40;;;;;;;0.10;0.10;;;19.40;99.90;;;;;;5091554;28;20066;-67
2022/07/09 07:51:07;;;;;;;12.20;0.47;;;19.60;99.90;;;;;;5084496;28;20051;-67
2022/07/09 07:53:33;;;;;;;0.00;0.00;;;19.60;99.90;;;;;;5087670;28;20523;-67
2022/07/09 07:56:03;;;;;;;0.05;0.05;;;19.70;99.90;;;;;;5051864;28;20048;-68
2022/07/09 07:58:29;;;;;;;0.00;0.00;;;19.70;99.90;;;;;;5073510;28;20036;-67
2022/07/09 08:00:55;;;;;;;0.00;0.00;;;19.80;99.90;;;;;;5078763;28;20056;-68
2022/07/09 08:03:21;;;;;;;0.90;0.73;;;20.00;99.90;;;;;;5090970;28;20462;-68
2022/07/09 08:05:47;;;;;;;0.10;0.10;;;20.10;99.90;;;;;;5091543;28;20127;-68
2022/07/09 08:08:13;;;;;;;0.00;0.00;;;20.10;99.90;;;;;;5089609;28;20036;-67
2022/07/09 08:10:38;;;;;;;0.00;0.00;;;20.10;99.90;;;;;;5069713;28;20049;-68
2022/07/09 08:13:04;;;;;;;0.08;0.08;;;20.00;99.90;;;;;;5070870;28;20452;-68
2022/07/09 08:15:30;;;;;;;0.00;0.00;;;19.90;99.90;;;;;;5076605;28;20037;-68
2022/07/09 08:17:55;;;;;;;0.00;0.00;;;19.80;99.90;;;;;;5071792;28;20480;-68
2022/07/09 08:20:22;;;;;;;0.50;0.50;;;19.80;99.90;;;;;;5071452;28;20464;-68
2022/07/09 08:22:48;;;;;;;0.03;0.03;;;19.70;99.90;;;;;;5060383;28;20037;-68
2022/07/09 08:25:13;;;;;;;1.00;0.20;;;19.70;99.90;;;;;;5053013;28;20400;-66
2022/07/09 08:27:39;;;;;;;0.10;0.10;;;19.90;99.90;;;;;;5089997;28;20048;-67
2022/07/09 08:30:05;;;;;;;0.30;0.30;;;19.90;99.90;;;;;;5084816;28;20147;-67
2022/07/09 08:32:31;;;;;;;0.10;0.10;;;19.90;99.90;;;;;;5072821;28;20127;-67
2022/07/09 08:34:57;;;;;;;0.30;0.30;;;20.00;99.90;;;;;;5061252;28;20135;-67
2022/07/09 08:37:22;;;;;;;0.05;0.05;;;20.00;99.90;;;;;;5066142;28;20070;-68
2022/07/09 08:39:48;;;;;;;0.30;0.30;;;19.90;99.90;;;;;;5034674;28;20079;-67
2022/07/09 08:42:13;;;;;;;0.00;0.00;;;19.80;99.90;;;;;;5066579;28;20040;-68
2022/07/09 08:44:42;;;;;;;0.00;0.00;;;19.90;99.90;;;;;;5058548;28;20116;-68
2022/07/09 08:47:11;;;;;;;0.10;0.10;;;20.10;99.90;;;;;;5071620;28;20132;-67
2022/07/09 08:49:38;;;;;;;6.55;1.65;;;20.20;99.90;;;;;;5089620;28;20124;-68
2022/07/09 08:52:06;;;;;;;0.05;0.05;;;20.10;99.90;;;;;;5070970;28;20062;-68
2022/07/09 08:54:33;;;;;;;0.70;0.30;;;20.20;99.90;;;;;;5082458;28;20048;-68
2022/07/09 08:56:59;;;;;;;0.00;0.00;;;20.30;99.90;;;;;;5049132;28;20665;-68
2022/07/09 08:59:24;;;;;;;0.00;0.00;;;20.10;99.90;;;;;;5061967;28;20088;-67
2022/07/09 09:01:50;;;;;;;0.00;0.00;;;20.00;99.90;;;;;;5068714;28;20051;-68
2022/07/09 09:04:17;;;;;;;0.00;0.00;;;20.20;99.90;;;;;;5049383;28;20084;-68
2022/07/09 09:06:43;;;;;;;0.05;0.05;;;20.20;99.90;;;;;;5077715;28;20040;-67
2022/07/09 09:09:10;;;;;;;0.00;0.00;;;20.40;99.90;;;;;;5089866;28;20368;-67
2022/07/09 09:11:36;;;;;;;0.00;0.00;;;20.30;99.90;;;;;;5077920;28;20075;-67
2022/07/09 09:14:03;;;;;;;0.00;0.00;;;20.40;99.90;;;;;;5069092;28;20576;-67
2022/07/09 09:16:28;;;;;;;0.00;0.00;;;20.50;99.90;;;;;;5063305;28;20045;-68
2022/07/09 09:18:55;;;;;;;0.00;0.00;;;20.60;99.90;;;;;;5068226;28;20029;-68
2022/07/09 09:21:25;;;;;;;0.00;0.00;;;20.50;99.90;;;;;;5047624;28;20815;-67
2022/07/09 09:23:55;;;;;;;0.00;0.00;;;20.50;99.90;;;;;;5064213;28;20044;-68
2022/07/09 09:26:23;;;;;;;1.25;0.95;;;20.50;99.90;;;;;;5063462;28;20048;-69
2022/07/09 09:28:57;;;;;;;0.80;0.20;;;20.50;99.90;;;;;;5043720;28;20045;-67
2022/07/09 09:31:35;;;;;;;0.00;0.00;;;20.50;99.90;;;;;;5057010;28;20033;-68
2022/07/09 09:34:14;;;;;;;0.25;0.25;;;20.50;99.90;;;;;;5033904;28;20052;-68
2022/07/09 09:36:40;;;;;;;0.10;0.10;;;20.60;99.90;;;;;;5052568;28;20041;-67
2022/07/09 09:39:09;;;;;;;0.00;0.00;;;20.80;99.90;;;;;;5044249;28;20407;-68
2022/07/09 09:41:35;;;;;;;0.17;0.13;;;20.80;99.90;;;;;;5070991;28;20045;-68
2022/07/09 09:44:05;;;;;;;0.13;0.13;;;20.80;99.90;;;;;;5051769;28;20070;-68
2022/07/09 09:46:36;;;;;;;0.10;0.10;;;20.70;99.90;;;;;;5061806;28;20048;-68
2022/07/09 09:49:05;;;;;;;0.00;0.00;;;20.70;99.90;;;;;;5058191;28;20067;-67
2022/07/09 09:51:33;;;;;;;0.22;0.22;;;20.70;99.90;;;;;;5066087;28;20544;-68
2022/07/09 09:53:59;;;;;;;0.00;0.00;;;21.00;99.90;;;;;;5073997;28;20121;-68
2022/07/09 09:56:27;;;;;;;2.90;0.98;;;21.10;99.90;;;;;;5068013;28;20044;-68
2022/07/09 09:58:53;;;;;;;0.30;0.30;;;21.00;99.90;;;;;;5066580;28;20055;-68
2022/07/09 10:01:19;;;;;;;0.20;0.20;;;20.80;99.90;;;;;;5068473;28;20059;-68
2022/07/09 10:03:46;;;;;;;0.15;0.08;;;20.70;99.90;;;;;;5049785;28;20056;-68
2022/07/09 10:06:12;;;;;;;0.52;0.47;;;20.60;99.90;;;;;;5088034;28;20483;-68
2022/07/09 10:08:38;;;;;;;0.05;0.05;;;20.40;99.90;;;;;;5087745;28;20063;-68
2022/07/09 10:11:04;;;;;;;1.30;0.43;;;20.20;99.90;;;;;;5067430;28;20048;-68
2022/07/09 10:13:30;;;;;;;0.00;0.00;;;19.90;99.90;;;;;;5065841;28;20054;-68
2022/07/09 10:15:55;;;;;;;0.17;0.17;;;19.70;99.90;;;;;;5068743;28;20056;-68
2022/07/09 10:18:21;;;;;;;3.00;0.85;;;19.60;99.90;;;;;;5070839;28;20040;-68
2022/07/09 10:20:46;;;;;;;0.70;0.57;;;19.40;99.90;;;;;;5081763;28;20126;-68
2022/07/09 10:23:24;;;;;;;0.35;0.17;;;19.40;99.90;;;;;;5088523;28;20444;-68
2022/07/09 10:25:57;;;;;;;0.20;0.20;;;19.30;99.90;;;;;;5056201;28;20484;-68
2022/07/09 10:28:25;;;;;;;0.80;0.52;;;19.30;99.90;;;;;;5088115;28;20043;-68
2022/07/09 10:30:51;;;;;;;1.05;0.95;;;19.40;99.90;;;;;;5088602;28;20491;-68
2022/07/09 10:33:23;;;;;;;5.13;0.22;;;19.50;99.90;;;;;;5070597;28;20136;-68
2022/07/09 10:35:54;;;;;;;0.00;0.00;;;19.70;99.90;;;;;;5051382;28;20044;-68
2022/07/09 10:38:24;;;;;;;0.00;0.00;;;19.80;99.90;;;;;;5046716;28;20505;-68
2022/07/09 10:40:59;;;;;;;0.00;0.00;;;20.00;99.90;;;;;;5074058;28;20088;-68
2022/07/09 10:43:45;;;;;;;0.00;0.00;;;20.00;99.90;;;;;;5076132;28;20045;-69
2022/07/09 10:46:12;;;;;;;0.00;0.00;;;20.10;99.90;;;;;;5087120;28;20067;-68
2022/07/09 10:48:38;;;;;;;5.18;0.32;;;20.10;99.90;;;;;;5082687;28;20033;-68
2022/07/09 10:51:03;;;;;;;0.00;0.00;;;20.10;99.90;;;;;;5068288;28;20484;-68
2022/07/09 10:53:29;;;;;;;0.20;0.20;;;20.00;99.90;;;;;;5049305;28;20044;-68
2022/07/09 10:55:55;;;;;;;0.00;0.00;;;20.10;99.90;;;;;;5078464;28;20044;-68
2022/07/09 10:58:23;;;;;;;0.00;0.00;;;20.10;99.90;;;;;;5068414;28;20032;-68
2022/07/09 11:00:59;;;;;;;0.38;0.38;;;20.10;99.90;;;;;;5088205;28;20081;-68
2022/07/09 11:03:29;;;;;;;0.00;0.00;;;20.30;99.90;;;;;;5069761;28;20090;-69
2022/07/09 11:05:55;;;;;;;0.00;0.00;;;20.50;99.90;;;;;;5087301;28;20555;-68
2022/07/09 11:08:21;;;;;;;0.10;0.10;;;20.90;99.90;;;;;;5076516;28;20062;-69
2022/07/09 11:10:47;;;;;;;0.00;0.00;;;21.10;99.90;;;;;;5049973;28;20068;-69
2022/07/09 11:13:12;;;;;;;0.05;0.05;;;21.00;99.90;;;;;;5068339;28;20505;-68
2022/07/09 11:15:38;;;;;;;0.65;0.52;;;21.30;99.90;;;;;;5068978;28;20048;-68
2022/07/09 11:18:13;;;;;;;0.03;0.03;;;21.40;99.90;;;;;;5068758;28;20043;-69
2022/07/09 11:20:46;;;;;;;0.13;0.13;;;21.30;99.90;;;;;;5065407;28;20048;-69
2022/07/09 11:23:13;;;;;;;0.00;0.00;;;21.30;99.90;;;;;;5034940;28;20049;-68
2022/07/09 11:25:39;;;;;;;0.00;0.00;;;21.20;99.90;;;;;;5088940;28;20047;-69
2022/07/09 11:28:05;;;;;;;0.00;0.00;;;21.40;99.90;;;;;;5067977;28;20038;-69
2022/07/09 11:30:32;;;;;;;0.00;0.00;;;21.50;99.90;;;;;;5086511;28;20056;-69
2022/07/09 11:32:58;;;;;;;0.00;0.00;;;21.70;99.90;;;;;;5064839;28;20171;-69
2022/07/09 11:35:31;;;;;;;0.00;0.00;;;21.90;99.90;;;;;;5079344;28;20071;-69
2022/07/09 11:37:57;;;;;;;;;;;22.10;99.90;;;;;;5087165;28;20032;-69
2022/07/09 11:40:24;;;;;;;0.00;0.00;;;22.20;99.90;;;;;;5070998;28;20440;-68
2022/07/09 11:42:50;;;;;;;0.10;0.10;;;21.90;99.90;;;;;;5050294;28;20056;-69
2022/07/09 11:45:23;;;;;;;0.00;0.00;;;22.00;99.90;;;;;;5042911;28;20044;-68
2022/07/09 11:47:48;;;;;;;;;;;22.10;99.90;;;;;;5073888;28;20056;-69
2022/07/09 11:50:18;;;;;;;0.00;0.00;;;22.50;99.90;;;;;;5080488;28;19934;-68
2022/07/09 11:52:45;;;;;;;0.03;0.03;;;22.60;99.90;;;;;;5081738;28;20044;-70
2022/07/09 11:55:13;;;;;;;0.00;0.00;;;22.60;99.90;;;;;;5067125;28;20527;-70
2022/07/09 11:57:39;;;;;;;0.00;0.00;;;22.60;99.90;;;;;;5042094;28;20505;-70
2022/07/09 12:00:20;;;;;;;0.00;0.00;;;22.80;99.90;;;;;;5065675;28;20044;-70
2022/07/09 12:02:46;;;;;;;0.00;0.00;;;22.90;99.90;;;;;;5037420;28;20053;-70
2022/07/09 12:05:11;;;;;;;1.10;0.22;;;23.10;99.90;;;;;;5054699;28;20084;-70
2022/07/09 12:07:37;;;;;;;0.00;0.00;;;23.00;99.90;;;;;;5048354;28;20123;-70
2022/07/09 12:10:06;;;;;;;0.00;0.00;;;23.00;99.90;;;;;;5062345;28;20075;-70
2022/07/09 12:12:33;;;;;;;0.00;0.00;;;23.20;99.90;;;;;;5038836;28;20098;-70
2022/07/09 12:15:00;;;;;;;0.00;0.00;;;23.10;99.90;;;;;;5060613;28;20059;-70
2022/07/09 12:17:27;;;;;;;0.00;0.00;;;23.10;99.90;;;;;;5055392;28;20417;-70
2022/07/09 12:19:54;;;;;;;0.00;0.00;;;23.20;99.90;;;;;;5059663;28;20558;-69
2022/07/09 12:22:20;;;;;;;0.00;0.00;;;23.30;99.90;;;;;;5060624;28;20124;-70
2022/07/09 12:24:46;;;;;;;0.30;0.30;;;23.30;99.90;;;;;;5062923;28;20131;-70
2022/07/09 12:27:12;;;;;;;0.00;0.00;;;23.30;99.90;;;;;;5063151;28;20094;-70
2022/07/09 12:29:38;;;;;;;0.28;0.20;;;23.50;99.90;;;;;;5056959;28;20041;-70
2022/07/09 12:32:04;;;;;;;0.00;0.00;;;23.60;99.90;;;;;;5048495;28;20431;-70
2022/07/09 12:34:30;;;;;;;6.18;1.48;;;23.70;99.90;;;;;;5085629;28;20055;-70
2022/07/09 12:36:56;;;;;;;1.67;0.13;;;23.30;99.90;;;;;;5090725;28;20036;-69
2022/07/09 12:39:21;;;;;;;0.00;0.00;;;23.30;99.90;;;;;;5090501;28;20380;-69
2022/07/09 12:41:47;;;;;;;0.00;0.00;;;23.20;99.90;;;;;;5062220;28;20127;-69
2022/07/09 12:44:12;;;;;;;0.00;0.00;;;23.10;99.90;;;;;;5090280;28;20044;-69